Time;durP1;ratioP1;P1;durP2;ratioP2;P2;SDS_P1;SDS_P2;PMS_P1;PMS_P2;Temp;Humidity;BMP_temperature;BMP_pressure;BME280_temperature;BME280_humidity;BME280_pressure;Samples;Min_cycle;Max_cycle;Signal;HPM_P1;HPM_P2
2023/06/30 00:01:54;;;;;;;11.32;3.03;;;;;;;16.16;100.00;101377.78;5048376;28;20078;-77
2023/06/30 00:04:22;;;;;;;8.75;3.33;;;;;;;16.12;100.00;101382.78;5026972;28;20032;-76
2023/06/30 00:06:49;;;;;;;10.40;3.00;;;;;;;16.08;100.00;101375.38;5045248;28;20057;-77
2023/06/30 00:09:24;;;;;;;8.32;3.20;;;;;;;16.03;100.00;101376.03;5016319;28;20031;-76
2023/06/30 00:11:51;;;;;;;7.13;3.83;;;;;;;15.96;100.00;101378.78;5042369;28;20053;-76
2023/06/30 00:14:17;;;;;;;8.50;3.25;;;;;;;15.92;100.00;101372.19;5041567;28;20075;-77
2023/06/30 00:16:42;;;;;;;6.75;2.90;;;;;;;15.86;100.00;101366.88;5044411;28;20029;-76
2023/06/30 00:19:08;;;;;;;4.68;2.72;;;;;;;15.86;100.00;101364.19;5034521;28;20033;-76
2023/06/30 00:21:33;;;;;;;6.22;2.85;;;;;;;15.87;100.00;101368.50;5022052;28;20059;-76
2023/06/30 00:24:01;;;;;;;9.05;3.00;;;;;;;15.81;100.00;101372.06;5027076;28;20064;-76
2023/06/30 00:26:28;;;;;;;10.32;3.75;;;;;;;15.72;100.00;101375.03;5040977;28;20037;-76
2023/06/30 00:28:54;;;;;;;6.20;2.80;;;;;;;15.71;100.00;101381.44;5040603;28;20029;-76
2023/06/30 00:31:20;;;;;;;7.63;2.80;;;;;;;15.64;100.00;101371.72;5041893;28;20028;-76
2023/06/30 00:33:45;;;;;;;9.45;2.85;;;;;;;15.63;100.00;101365.53;5044497;28;20025;-76
2023/06/30 00:36:11;;;;;;;9.32;2.50;;;;;;;15.60;100.00;101373.22;5035454;28;20041;-76
2023/06/30 00:38:36;;;;;;;7.43;3.15;;;;;;;15.59;100.00;101374.25;5027599;28;20070;-76
2023/06/30 00:41:02;;;;;;;8.55;3.53;;;;;;;15.45;100.00;101358.22;5036752;28;20132;-77
2023/06/30 00:43:27;;;;;;;7.70;2.67;;;;;;;15.53;100.00;101368.69;5042144;28;20054;-76
2023/06/30 00:45:52;;;;;;;10.43;3.03;;;;;;;15.53;100.00;101365.19;5024408;28;20080;-76
2023/06/30 00:48:19;;;;;;;10.60;2.55;;;;;;;15.52;100.00;101360.88;5040767;28;20063;-76
2023/06/30 00:50:45;;;;;;;6.97;3.00;;;;;;;15.55;100.00;101357.75;5036959;28;20043;-76
2023/06/30 00:53:12;;;;;;;8.63;4.03;;;;;;;15.45;100.00;101352.00;5036429;28;20025;-76
2023/06/30 00:55:40;;;;;;;6.25;3.03;;;;;;;15.47;100.00;101364.19;5013514;28;20389;-76
2023/06/30 00:58:05;;;;;;;11.85;2.33;;;;;;;15.44;100.00;101363.81;5045167;28;20071;-76
2023/06/30 01:00:31;;;;;;;9.77;3.42;;;;;;;15.41;100.00;101372.31;5042261;28;20068;-76
2023/06/30 01:03:08;;;;;;;7.30;2.67;;;;;;;15.41;100.00;101375.00;5029339;28;20041;-76
2023/06/30 01:05:44;;;;;;;10.65;2.90;;;;;;;15.35;100.00;101371.28;5033277;28;20526;-76
2023/06/30 01:08:18;;;;;;;10.65;4.32;;;;;;;15.32;100.00;101372.53;5044509;28;20025;-76
2023/06/30 01:10:45;;;;;;;12.13;4.05;;;;;;;15.27;100.00;101377.78;5034964;28;20104;-76
2023/06/30 01:13:11;;;;;;;11.00;3.40;;;;;;;15.21;100.00;101377.78;5046956;28;20052;-76
2023/06/30 01:15:38;;;;;;;9.07;4.25;;;;;;;15.18;100.00;101375.53;5037161;28;20060;-77
2023/06/30 01:18:03;;;;;;;11.45;2.85;;;;;;;15.16;100.00;101373.06;5024868;28;20032;-76
2023/06/30 01:20:32;;;;;;;9.73;2.80;;;;;;;15.12;100.00;101375.34;5048285;28;20037;-76
2023/06/30 01:23:10;;;;;;;9.50;3.33;;;;;;;15.09;100.00;101369.56;5036933;28;20036;-76
2023/06/30 01:25:36;;;;;;;7.97;3.33;;;;;;;14.97;100.00;101363.22;5035574;28;20038;-76
2023/06/30 01:28:02;;;;;;;7.38;2.92;;;;;;;15.02;100.00;101374.97;5048178;28;20613;-76
2023/06/30 01:30:31;;;;;;;8.02;2.70;;;;;;;14.95;100.00;101374.19;5048213;28;20025;-76
2023/06/30 01:32:58;;;;;;;11.13;3.13;;;;;;;14.93;100.00;101383.47;5038213;28;20037;-76
2023/06/30 01:35:24;;;;;;;9.70;3.30;;;;;;;14.87;100.00;101371.72;5045583;28;20120;-76
2023/06/30 01:37:50;;;;;;;5.32;2.80;;;;;;;14.87;100.00;101379.78;5047984;28;20040;-76
2023/06/30 01:40:16;;;;;;;8.70;2.90;;;;;;;14.83;100.00;101378.59;5033452;28;20030;-76
2023/06/30 01:42:42;;;;;;;12.68;3.05;;;;;;;14.83;100.00;101387.47;5028895;28;20061;-76
2023/06/30 01:45:09;;;;;;;4.85;2.53;;;;;;;14.79;100.00;101380.03;5029238;28;20037;-76
2023/06/30 01:47:35;;;;;;;10.10;3.38;;;;;;;14.80;100.00;101374.47;5014061;28;20091;-76
2023/06/30 01:50:01;;;;;;;5.78;2.55;;;;;;;14.82;100.00;101379.59;5020561;28;20103;-76
2023/06/30 01:52:26;;;;;;;14.02;3.35;;;;;;;14.84;100.00;101370.28;5047947;28;20476;-76
2023/06/30 01:54:52;;;;;;;10.48;2.92;;;;;;;14.87;100.00;101363.69;5043715;28;20084;-76
2023/06/30 01:57:17;;;;;;;12.20;3.60;;;;;;;14.92;100.00;101363.03;5017029;28;20132;-76
2023/06/30 01:59:43;;;;;;;10.15;2.92;;;;;;;14.86;100.00;101362.03;5017255;28;20088;-76
2023/06/30 02:02:08;;;;;;;12.63;3.63;;;;;;;14.87;100.00;101361.81;5023450;28;20678;-76
2023/06/30 02:04:34;;;;;;;13.50;3.08;;;;;;;14.86;100.00;101362.03;5036687;28;20658;-77
2023/06/30 02:06:59;;;;;;;8.30;2.80;;;;;;;14.84;100.00;101358.72;5035065;28;20087;-76
2023/06/30 02:09:24;;;;;;;10.07;3.50;;;;;;;14.75;100.00;101360.00;5049009;28;20032;-76
2023/06/30 02:11:50;;;;;;;11.90;2.92;;;;;;;14.71;100.00;101364.97;5021012;28;20125;-76
2023/06/30 02:14:15;;;;;;;8.18;3.60;;;;;;;14.64;100.00;101353.41;5032311;28;20108;-76
2023/06/30 02:16:41;;;;;;;8.02;2.22;;;;;;;14.55;100.00;101343.97;5014394;28;20116;-76
2023/06/30 02:19:06;;;;;;;9.20;3.33;;;;;;;14.51;100.00;101353.44;5032170;28;20696;-76
2023/06/30 02:21:31;;;;;;;7.75;3.47;;;;;;;14.39;100.00;101353.25;5049431;28;20116;-76
2023/06/30 02:23:57;;;;;;;8.57;3.38;;;;;;;14.37;100.00;101366.06;5039116;28;20075;-76
2023/06/30 02:26:22;;;;;;;4.85;2.53;;;;;;;14.28;100.00;101368.16;5042460;28;20120;-77
2023/06/30 02:28:47;;;;;;;7.85;2.42;;;;;;;14.20;100.00;101365.66;5040573;28;20032;-76
2023/06/30 02:31:13;;;;;;;8.32;3.45;;;;;;;14.13;100.00;101365.66;5050477;28;20051;-77
2023/06/30 02:33:38;;;;;;;6.10;3.03;;;;;;;14.11;100.00;101365.03;5050987;28;20033;-76
2023/06/30 02:36:04;;;;;;;7.57;2.72;;;;;;;14.07;100.00;101361.16;5039421;28;20042;-76
2023/06/30 02:38:30;;;;;;;9.48;4.07;;;;;;;14.05;100.00;101363.19;5013999;28;20033;-76
2023/06/30 02:40:56;;;;;;;6.07;2.88;;;;;;;14.02;100.00;101363.63;5044558;28;20043;-76
2023/06/30 02:43:21;;;;;;;11.77;3.55;;;;;;;13.95;100.00;101366.28;5037324;28;20053;-76
2023/06/30 02:45:47;;;;;;;7.45;2.90;;;;;;;13.93;100.00;101370.22;5046304;28;20110;-76
2023/06/30 02:48:12;;;;;;;5.70;2.60;;;;;;;13.87;100.00;101368.34;5050740;28;20110;-77
2023/06/30 02:50:37;;;;;;;12.30;4.07;;;;;;;13.83;100.00;101378.66;5050856;28;20040;-77
2023/06/30 02:53:03;;;;;;;11.13;3.83;;;;;;;13.74;100.00;101378.03;5031386;28;20028;-76
2023/06/30 02:55:28;;;;;;;10.45;3.72;;;;;;;13.71;100.00;101380.31;5032669;28;20106;-76
2023/06/30 02:57:54;;;;;;;9.27;3.38;;;;;;;13.71;100.00;101381.13;5050493;28;20468;-76
2023/06/30 03:00:20;;;;;;;6.80;2.78;;;;;;;13.70;100.00;101392.91;5050508;28;20036;-76
2023/06/30 03:02:45;;;;;;;4.60;2.85;;;;;;;13.64;100.00;101390.19;5032347;28;20041;-76
2023/06/30 03:05:10;;;;;;;6.72;2.85;;;;;;;13.61;100.00;101387.91;5007916;28;20121;-76
2023/06/30 03:07:36;;;;;;;6.93;2.47;;;;;;;13.59;100.00;101383.56;5031276;28;20384;-77
2023/06/30 03:10:02;;;;;;;7.45;3.50;;;;;;;13.59;100.00;101385.44;5040366;28;20040;-76
2023/06/30 03:12:27;;;;;;;12.45;4.15;;;;;;;13.56;100.00;101389.34;5040088;28;20033;-76
2023/06/30 03:14:53;;;;;;;7.82;3.63;;;;;;;13.58;100.00;101389.97;5031041;28;20385;-76
2023/06/30 03:17:18;;;;;;;10.13;3.63;;;;;;;13.57;100.00;101392.84;5013319;28;20465;-76
2023/06/30 03:19:44;;;;;;;11.05;3.38;;;;;;;13.56;100.00;101385.84;5031195;28;20112;-76
2023/06/30 03:22:09;;;;;;;8.88;3.88;;;;;;;13.54;100.00;101391.38;5031040;28;20037;-76
2023/06/30 03:24:35;;;;;;;8.52;3.38;;;;;;;13.53;100.00;101384.38;5050162;28;20027;-76
2023/06/30 03:27:00;;;;;;;7.93;3.10;;;;;;;13.51;100.00;101381.09;5049904;28;20083;-76
2023/06/30 03:29:26;;;;;;;8.57;3.25;;;;;;;13.51;100.00;101381.09;5049855;28;20027;-76
2023/06/30 03:31:51;;;;;;;10.00;3.20;;;;;;;13.44;100.00;101372.22;5043336;28;20036;-76
2023/06/30 03:34:17;;;;;;;8.05;2.72;;;;;;;13.49;100.00;101382.31;5030686;28;20503;-76
2023/06/30 03:36:43;;;;;;;9.93;3.53;;;;;;;13.47;100.00;101373.69;5012866;28;20030;-76
2023/06/30 03:39:08;;;;;;;6.50;3.03;;;;;;;13.47;100.00;101368.31;4997943;28;20029;-76
2023/06/30 03:41:33;;;;;;;9.38;3.28;;;;;;;13.46;100.00;101367.47;5030363;28;20040;-76
2023/06/30 03:43:59;;;;;;;5.60;3.38;;;;;;;13.47;100.00;101371.00;5012661;28;20037;-76
2023/06/30 03:46:24;;;;;;;8.02;3.38;;;;;;;13.44;100.00;101374.91;5030522;28;20099;-76
2023/06/30 03:48:50;;;;;;;7.35;3.53;;;;;;;13.38;100.00;101364.97;5030444;28;20029;-76
2023/06/30 03:51:15;;;;;;;4.85;2.95;;;;;;;13.36;100.00;101362.53;5030736;28;20033;-76
2023/06/30 03:53:42;;;;;;;6.13;2.92;;;;;;;13.35;100.00;101366.19;5049487;28;20025;-76
2023/06/30 03:56:08;;;;;;;6.57;3.47;;;;;;;13.27;100.00;101353.00;5049294;28;20032;-76
2023/06/30 03:58:33;;;;;;;11.35;3.83;;;;;;;13.32;100.00;101358.56;5049261;28;20043;-76
2023/06/30 04:00:58;;;;;;;5.00;3.17;;;;;;;13.40;100.00;101368.28;5049236;28;20025;-76
2023/06/30 04:03:25;;;;;;;4.55;2.97;;;;;;;13.40;100.00;101370.16;5049562;28;20496;-76
2023/06/30 04:05:50;;;;;;;8.85;4.00;;;;;;;13.39;100.00;101361.28;5049161;28;20037;-77
2023/06/30 04:08:15;;;;;;;11.70;3.33;;;;;;;13.43;100.00;101367.88;5049100;28;20028;-77
2023/06/30 04:10:41;;;;;;;8.45;3.55;;;;;;;13.43;100.00;101359.00;5026269;28;20115;-77
2023/06/30 04:13:07;;;;;;;7.55;3.45;;;;;;;13.50;100.00;101367.91;5029382;28;20044;-76
2023/06/30 04:15:32;;;;;;;12.30;3.88;;;;;;;13.47;100.00;101358.41;5049082;28;20129;-76
2023/06/30 04:17:58;;;;;;;15.75;4.13;;;;;;;13.45;100.00;101352.44;5048795;28;20083;-76
2023/06/30 04:20:23;;;;;;;6.43;3.20;;;;;;;13.51;100.00;101358.81;5043236;28;20041;-77
2023/06/30 04:22:48;;;;;;;9.95;3.33;;;;;;;13.55;100.00;101376.97;5012350;28;20022;-76
2023/06/30 04:25:14;;;;;;;9.25;3.17;;;;;;;13.58;100.00;101368.53;5029701;28;20030;-76
2023/06/30 04:27:39;;;;;;;13.32;4.43;;;;;;;13.55;100.00;101355.53;5012199;28;20465;-77
2023/06/30 04:30:08;;;;;;;11.18;4.20;;;;;;;13.59;100.00;101364.81;5029282;28;20041;-77
2023/06/30 04:32:34;;;;;;;9.52;3.60;;;;;;;13.63;100.00;101359.88;5012008;28;20044;-77
2023/06/30 04:34:59;;;;;;;13.07;4.55;;;;;;;13.65;100.00;101363.19;5032725;28;20492;-77
2023/06/30 04:37:30;;;;;;;6.93;3.88;;;;;;;13.64;100.00;101356.16;5030204;28;20385;-77
2023/06/30 04:39:57;;;;;;;12.83;4.33;;;;;;;13.66;100.00;101361.34;5021103;28;20128;-77
2023/06/30 04:42:22;;;;;;;8.65;3.50;;;;;;;13.67;100.00;101362.97;5042817;28;20326;-77
2023/06/30 04:44:48;;;;;;;13.82;4.32;;;;;;;13.74;100.00;101363.81;5041645;28;20111;-77
2023/06/30 04:47:15;;;;;;;12.70;3.75;;;;;;;13.91;100.00;101364.22;5008909;28;20047;-77
2023/06/30 04:49:41;;;;;;;9.32;3.42;;;;;;;13.95;100.00;101363.59;5048628;28;20032;-77
2023/06/30 04:52:06;;;;;;;11.23;3.53;;;;;;;13.99;100.00;101369.38;5038278;28;20033;-77
2023/06/30 04:54:32;;;;;;;8.90;3.08;;;;;;;14.00;100.00;101365.69;5040458;28;20091;-77
2023/06/30 04:56:57;;;;;;;6.38;3.03;;;;;;;14.01;100.00;101370.81;5048329;28;20484;-77
2023/06/30 04:59:23;;;;;;;9.95;3.95;;;;;;;14.04;100.00;101374.94;5030642;28;20041;-77
2023/06/30 05:01:49;;;;;;;7.72;3.80;;;;;;;14.02;100.00;101369.81;5035024;28;20057;-78
2023/06/30 05:04:14;;;;;;;14.77;4.22;;;;;;;14.09;100.00;101371.66;5023008;28;20037;-77
2023/06/30 05:06:40;;;;;;;8.23;4.57;;;;;;;14.12;100.00;101373.91;5039236;28;20036;-77
2023/06/30 05:09:05;;;;;;;9.70;4.07;;;;;;;14.30;100.00;101367.91;5021083;28;20032;-77
2023/06/30 05:11:31;;;;;;;9.07;3.97;;;;;;;14.68;100.00;101370.78;5039166;28;20083;-77
2023/06/30 05:13:56;;;;;;;8.52;4.25;;;;;;;14.75;100.00;101371.59;5041779;28;20024;-77
2023/06/30 05:16:22;;;;;;;9.52;4.40;;;;;;;14.76;100.00;101365.16;5039801;28;20035;-77
2023/06/30 05:18:47;;;;;;;10.77;3.13;;;;;;;14.73;100.00;101370.16;5039212;28;21208;-77
2023/06/30 05:21:12;;;;;;;7.47;3.08;;;;;;;14.75;100.00;101363.53;5022306;28;20930;-77
2023/06/30 05:23:38;;;;;;;10.98;4.32;;;;;;;14.87;100.00;101369.88;5037517;28;20052;-77
2023/06/30 05:26:09;;;;;;;11.00;3.75;;;;;;;14.90;100.00;101369.44;5022028;28;20037;-77
2023/06/30 05:28:35;;;;;;;6.82;3.85;;;;;;;14.94;100.00;101366.34;5039972;28;20032;-77
2023/06/30 05:31:00;;;;;;;12.95;4.93;;;;;;;14.94;100.00;101374.41;5035401;28;20030;-77
2023/06/30 05:33:26;;;;;;;9.80;4.75;;;;;;;14.97;100.00;101374.78;5039180;28;20029;-77
2023/06/30 05:35:51;;;;;;;7.45;3.80;;;;;;;15.02;100.00;101371.47;5041311;28;20037;-77
2023/06/30 05:38:16;;;;;;;13.27;4.47;;;;;;;15.08;100.00;101371.44;5039451;28;20034;-77
2023/06/30 05:40:42;;;;;;;8.50;4.07;;;;;;;15.12;100.00;101383.41;5038704;28;20119;-78
2023/06/30 05:43:07;;;;;;;8.85;3.72;;;;;;;15.20;100.00;101379.66;5039219;28;20057;-77
2023/06/30 05:45:33;;;;;;;10.05;4.07;;;;;;;15.29;100.00;101381.03;5026645;28;20128;-77
2023/06/30 05:47:58;;;;;;;13.13;4.30;;;;;;;15.35;99.30;101387.41;5042895;28;20455;-78
2023/06/30 05:50:23;;;;;;;7.68;3.58;;;;;;;15.41;99.05;101391.13;5037420;28;20033;-77
2023/06/30 05:52:49;;;;;;;8.13;3.42;;;;;;;15.43;99.77;101386.34;5026301;28;20025;-77
2023/06/30 05:55:15;;;;;;;9.45;3.58;;;;;;;15.51;97.42;101388.78;5041912;28;20116;-77
2023/06/30 05:57:40;;;;;;;9.68;4.18;;;;;;;15.78;97.71;101384.09;5042285;28;20040;-77
2023/06/30 06:00:07;;;;;;;9.27;3.55;;;;;;;15.92;95.92;101379.44;5045952;28;20061;-77
2023/06/30 06:02:33;;;;;;;11.02;4.53;;;;;;;15.99;95.48;101383.72;5024491;28;20033;-77
2023/06/30 06:04:58;;;;;;;8.20;3.53;;;;;;;15.98;96.05;101384.78;5042048;28;20041;-77
2023/06/30 06:07:24;;;;;;;7.32;3.00;;;;;;;15.95;94.48;101387.88;5044996;28;20033;-77
2023/06/30 06:09:49;;;;;;;8.75;3.72;;;;;;;15.95;95.68;101385.19;5040984;28;20472;-78
2023/06/30 06:12:14;;;;;;;8.25;3.75;;;;;;;15.89;94.80;101377.19;5040663;28;20049;-77
2023/06/30 06:14:41;;;;;;;10.35;3.67;;;;;;;15.89;95.80;101367.25;5025046;28;20526;-77
2023/06/30 06:17:06;;;;;;;8.80;3.33;;;;;;;15.98;97.15;101378.53;5044807;28;20036;-77
2023/06/30 06:19:32;;;;;;;11.82;3.95;;;;;;;16.07;97.12;101385.31;5041216;28;20029;-77
2023/06/30 06:21:57;;;;;;;5.65;2.47;;;;;;;16.09;96.59;101385.91;5041134;28;20068;-77
2023/06/30 06:24:22;;;;;;;5.38;2.70;;;;;;;16.15;94.91;101403.06;5021894;28;20064;-77
2023/06/30 06:26:48;;;;;;;6.20;2.95;;;;;;;16.18;95.10;101395.34;5045005;28;20117;-71
2023/06/30 06:29:18;;;;;;;11.52;4.10;;;;;;;16.22;93.42;101398.44;5040797;28;20025;-76
2023/06/30 06:31:45;;;;;;;8.32;3.42;;;;;;;16.23;93.42;101400.09;5040861;28;20033;-77
2023/06/30 06:34:10;;;;;;;9.43;3.28;;;;;;;16.23;93.50;101402.78;5022908;28;20040;-76
2023/06/30 06:36:36;;;;;;;9.38;2.92;;;;;;;16.28;93.18;101396.72;5044686;28;20025;-77
2023/06/30 06:39:01;;;;;;;9.80;3.30;;;;;;;16.32;94.05;101392.53;5041081;28;20092;-76
2023/06/30 06:41:27;;;;;;;8.85;4.35;;;;;;;16.39;95.39;101387.91;5036000;28;20026;-76
2023/06/30 06:43:52;;;;;;;7.82;3.08;;;;;;;16.39;91.75;101394.13;5022339;28;20888;-77
2023/06/30 06:46:17;;;;;;;5.72;3.05;;;;;;;16.48;92.74;101404.59;5024077;28;20073;-76
2023/06/30 06:48:42;;;;;;;6.22;2.50;;;;;;;16.43;91.22;101405.28;5035237;28;20028;-76
2023/06/30 06:51:08;;;;;;;4.80;2.50;;;;;;;16.48;90.14;101402.75;5037073;28;20055;-77
2023/06/30 06:53:34;;;;;;;7.32;2.78;;;;;;;16.54;87.84;101409.13;5045789;28;20036;-76
2023/06/30 06:56:01;;;;;;;3.63;2.22;;;;;;;16.59;86.11;101404.72;5037591;28;20029;-75
2023/06/30 06:58:29;;;;;;;6.28;3.42;;;;;;;16.59;86.84;101390.44;5031269;28;20039;-76
2023/06/30 07:00:55;;;;;;;10.93;2.90;;;;;;;16.69;84.71;101401.50;5031465;28;20033;-75
2023/06/30 07:03:21;;;;;;;4.65;2.20;;;;;;;16.75;84.69;101407.88;5031686;28;20044;-75
2023/06/30 07:05:47;;;;;;;4.80;2.35;;;;;;;16.79;84.09;101414.47;5038751;28;20095;-76
2023/06/30 07:08:14;;;;;;;2.08;1.80;;;;;;;16.78;82.16;101407.44;5050521;28;20695;-76
2023/06/30 07:10:40;;;;;;;5.10;2.13;;;;;;;16.84;80.45;101399.28;5050523;28;20102;-76
2023/06/30 07:13:06;;;;;;;5.45;2.97;;;;;;;16.91;81.15;101404.59;5031674;28;20911;-76
2023/06/30 07:15:31;;;;;;;9.35;1.90;;;;;;;16.92;78.84;101403.53;5048238;28;20029;-75
2023/06/30 07:17:57;;;;;;;2.67;1.98;;;;;;;16.96;79.29;101404.75;5046078;28;20110;-77
2023/06/30 07:20:26;;;;;;;3.58;2.03;;;;;;;17.02;80.72;101403.00;5032910;28;20036;-80
2023/06/30 07:22:54;;;;;;;7.22;2.22;;;;;;;17.05;77.35;101405.25;5016310;28;20056;-78
2023/06/30 07:25:19;;;;;;;2.13;1.83;;;;;;;17.09;76.29;101403.75;5034536;28;20118;-77
2023/06/30 07:27:56;;;;;;;3.08;1.50;;;;;;;17.10;75.36;101405.41;5034874;28;20060;-76
2023/06/30 07:30:23;;;;;;;2.28;1.70;;;;;;;17.16;78.71;101411.75;5015597;28;20025;-74
2023/06/30 07:32:49;;;;;;;1.83;1.42;;;;;;;17.17;74.93;101400.75;5032682;28;20466;-74
2023/06/30 07:35:15;;;;;;;3.95;1.42;;;;;;;17.24;75.51;101409.59;5033628;28;20022;-76
2023/06/30 07:37:41;;;;;;;3.97;1.58;;;;;;;17.30;76.29;101413.25;5032401;28;20030;-76
2023/06/30 07:40:07;;;;;;;4.70;1.75;;;;;;;17.35;71.97;101418.78;5033060;28;20082;-76
2023/06/30 07:42:32;;;;;;;4.22;2.47;;;;;;;17.39;72.64;101414.56;5033662;28;20068;-75
2023/06/30 07:44:58;;;;;;;2.25;1.50;;;;;;;17.42;70.69;101419.53;5032887;28;20477;-75
2023/06/30 07:47:23;;;;;;;2.17;1.50;;;;;;;17.45;70.60;101419.06;5016160;28;20037;-78
2023/06/30 07:49:48;;;;;;;4.00;1.38;;;;;;;17.52;71.38;101414.38;5032883;28;20061;-77
2023/06/30 07:52:14;;;;;;;3.28;1.75;;;;;;;17.61;70.70;101404.09;5032982;28;20056;-79
2023/06/30 07:54:41;;;;;;;3.85;1.45;;;;;;;17.66;68.33;101406.13;5034833;28;20033;-77
2023/06/30 07:57:07;;;;;;;4.93;1.83;;;;;;;17.72;72.78;101407.88;5033082;28;20049;-75
2023/06/30 07:59:33;;;;;;;5.93;2.83;;;;;;;17.76;71.22;101403.66;5034817;28;20056;-77
2023/06/30 08:01:58;;;;;;;5.72;2.00;;;;;;;17.82;67.39;101402.78;5032317;28;20384;-78
2023/06/30 08:04:24;;;;;;;2.60;1.90;;;;;;;17.91;68.25;101405.97;5031154;28;20134;-77
2023/06/30 08:06:50;;;;;;;3.13;1.63;;;;;;;17.92;66.81;101408.44;5033987;28;20060;-76
2023/06/30 08:09:15;;;;;;;2.58;1.48;;;;;;;18.05;68.96;101404.72;5033617;28;20040;-76
2023/06/30 08:11:40;;;;;;;4.38;1.73;;;;;;;18.09;67.22;101399.66;5033591;28;20025;-76
2023/06/30 08:14:06;;;;;;;2.92;1.75;;;;;;;18.32;66.38;101406.97;5034522;28;20500;-77
2023/06/30 08:16:32;;;;;;;2.85;1.60;;;;;;;19.10;66.30;101400.31;5034608;28;20033;-74
2023/06/30 08:18:57;;;;;;;2.38;1.48;;;;;;;20.56;60.95;101399.56;5015139;28;20065;-76
2023/06/30 08:21:23;;;;;;;5.57;2.58;;;;;;;22.06;55.87;101405.53;5014717;28;20155;-76
2023/06/30 08:23:48;;;;;;;6.72;1.30;;;;;;;22.72;51.92;101408.72;5032716;28;20924;-74
2023/06/30 08:26:14;;;;;;;4.18;1.65;;;;;;;23.40;51.44;101408.72;5033525;28;20416;-73
2023/06/30 08:28:40;;;;;;;4.32;1.75;;;;;;;24.03;46.77;101396.81;5032332;28;20033;-74
2023/06/30 08:31:05;;;;;;;6.18;2.38;;;;;;;25.27;44.58;101401.63;5032916;28;20032;-72
2023/06/30 08:33:30;;;;;;;2.85;1.70;;;;;;;26.53;44.07;101389.13;5032686;28;20032;-75
2023/06/30 08:35:56;;;;;;;2.05;1.30;;;;;;;27.74;39.14;101389.66;5035306;28;20040;-75
2023/06/30 08:38:21;;;;;;;3.13;1.58;;;;;;;28.21;38.31;101381.47;5030809;28;20069;-75
2023/06/30 08:40:47;;;;;;;4.57;1.77;;;;;;;28.37;37.42;101388.31;5048635;28;20135;-75
2023/06/30 08:43:12;;;;;;;5.55;1.60;;;;;;;28.09;36.37;101384.72;5030637;28;20049;-75
2023/06/30 08:45:48;;;;;;;10.07;2.00;;;;;;;28.14;38.91;101387.38;5048587;28;20488;-75
2023/06/30 08:48:18;;;;;;;5.47;1.75;;;;;;;27.96;36.40;101372.63;5029606;28;20072;-75
2023/06/30 08:50:44;;;;;;;3.10;1.27;;;;;;;28.19;34.25;101368.91;5029276;28;20388;-76
2023/06/30 08:53:10;;;;;;;2.65;1.30;;;;;;;28.38;33.93;101360.56;5029813;28;20100;-75
2023/06/30 08:55:35;;;;;;;2.70;1.40;;;;;;;28.64;34.44;101360.09;5011903;28;20045;-75
2023/06/30 08:58:00;;;;;;;1.75;1.35;;;;;;;28.34;35.65;101359.53;5048543;28;20033;-75
2023/06/30 09:00:26;;;;;;;2.25;1.60;;;;;;;28.14;35.29;101359.97;5048529;28;20036;-76
2023/06/30 09:02:54;;;;;;;4.10;1.55;;;;;;;28.05;35.06;101354.34;5048842;28;20071;-75
2023/06/30 09:05:27;;;;;;;3.22;1.77;;;;;;;28.38;35.50;101360.56;5048325;28;20033;-76
2023/06/30 09:07:54;;;;;;;3.42;1.73;;;;;;;28.29;36.11;101356.88;5048396;28;20025;-75
2023/06/30 09:10:23;;;;;;;2.95;1.27;;;;;;;27.09;35.74;101358.31;5030548;28;20123;-75
2023/06/30 09:12:51;;;;;;;1.33;1.23;;;;;;;25.48;38.71;101366.81;5048378;28;20056;-75
2023/06/30 09:15:19;;;;;;;1.48;1.30;;;;;;;24.46;39.75;101356.41;5037629;28;20028;-75
2023/06/30 09:17:44;;;;;;;4.30;1.70;;;;;;;23.77;42.11;101345.03;5033237;28;20403;-75
2023/06/30 09:20:12;;;;;;;4.10;1.52;;;;;;;23.30;46.86;101342.53;5033401;28;20032;-76
2023/06/30 09:22:40;;;;;;;4.35;1.88;;;;;;;22.95;46.38;101350.34;5033444;28;20034;-75
2023/06/30 09:25:07;;;;;;;3.38;2.20;;;;;;;22.62;43.41;101351.56;5033410;28;20116;-75
2023/06/30 09:27:36;;;;;;;18.15;3.38;;;;;;;22.37;44.73;101346.78;5033292;28;20041;-75
2023/06/30 09:30:01;;;;;;;4.30;2.72;;;;;;;22.22;45.96;101350.25;5033344;28;20059;-75
2023/06/30 09:32:32;;;;;;;4.07;2.78;;;;;;;22.15;46.77;101357.78;5033236;28;20041;-75
2023/06/30 09:35:07;;;;;;;5.90;1.88;;;;;;;22.02;50.60;101347.38;5033281;28;20040;-75
2023/06/30 09:37:42;;;;;;;3.78;2.67;;;;;;;21.89;48.86;101345.94;5032901;28;20123;-74
2023/06/30 09:40:15;;;;;;;5.95;2.10;;;;;;;21.79;48.80;101341.22;5033226;28;20017;-75
2023/06/30 09:42:43;;;;;;;5.55;2.30;;;;;;;21.73;49.38;101349.59;5032998;28;20063;-73
2023/06/30 09:45:08;;;;;;;4.80;2.05;;;;;;;21.50;53.00;101345.31;5032955;28;20033;-74
2023/06/30 09:47:34;;;;;;;3.22;1.75;;;;;;;21.45;53.06;101337.94;5032976;28;20036;-74
2023/06/30 09:49:59;;;;;;;7.25;2.10;;;;;;;21.44;52.39;101331.72;5032827;28;20033;-74
2023/06/30 09:52:27;;;;;;;3.55;2.00;;;;;;;21.39;52.17;101333.56;5032813;28;20432;-75
2023/06/30 09:54:54;;;;;;;4.72;2.15;;;;;;;21.30;53.48;101335.06;5032583;28;20162;-74
2023/06/30 09:57:19;;;;;;;2.33;1.90;;;;;;;21.31;52.32;101334.81;5032714;28;20498;-75
2023/06/30 09:59:47;;;;;;;2.45;2.25;;;;;;;21.43;53.99;101340.09;5032734;28;20029;-75
2023/06/30 10:02:13;;;;;;;4.13;2.15;;;;;;;21.35;51.31;101337.81;5032700;28;20516;-75
2023/06/30 10:04:39;;;;;;;3.72;2.15;;;;;;;21.32;50.53;101339.16;5032404;28;20084;-75
2023/06/30 10:07:06;;;;;;;2.85;2.08;;;;;;;21.20;49.33;101336.63;5032386;28;20124;-74
2023/06/30 10:09:35;;;;;;;5.63;2.15;;;;;;;21.24;50.76;101335.00;5032606;28;20028;-75
2023/06/30 10:12:01;;;;;;;4.50;2.00;;;;;;;21.46;52.63;101334.19;5040476;28;20021;-75
2023/06/30 10:14:29;;;;;;;3.95;1.80;;;;;;;21.55;50.20;101329.91;5051416;28;20028;-75
2023/06/30 10:16:56;;;;;;;5.65;2.33;;;;;;;21.51;52.26;101328.81;5051544;28;20029;-74
2023/06/30 10:19:23;;;;;;;3.38;2.47;;;;;;;21.71;50.56;101320.00;5051212;28;20041;-77
2023/06/30 10:21:49;;;;;;;4.25;2.20;;;;;;;21.93;48.63;101319.91;5045107;28;20063;-77
2023/06/30 10:24:17;;;;;;;4.85;1.95;;;;;;;21.91;49.84;101323.94;5032296;28;20033;-77
2023/06/30 10:26:42;;;;;;;5.50;1.67;;;;;;;21.72;50.36;101326.22;5031730;28;20029;-76
2023/06/30 10:29:08;;;;;;;8.68;2.30;;;;;;;21.50;51.52;101315.47;5031621;28;20031;-76
2023/06/30 10:31:35;;;;;;;6.75;2.67;;;;;;;21.34;51.30;101322.63;5032219;28;20022;-76
2023/06/30 10:34:01;;;;;;;3.80;1.95;;;;;;;21.42;51.59;101324.91;5031809;28;20075;-77
2023/06/30 10:36:27;;;;;;;5.80;2.67;;;;;;;21.71;54.42;101316.47;5035250;28;20029;-76
2023/06/30 10:38:54;;;;;;;4.90;2.20;;;;;;;21.87;51.24;101313.59;5051025;28;20029;-76
2023/06/30 10:41:22;;;;;;;4.18;2.05;;;;;;;21.91;47.64;101311.19;5048411;28;20068;-77
2023/06/30 10:44:07;;;;;;;3.17;1.80;;;;;;;21.98;52.11;101306.34;5051200;28;20072;-76
2023/06/30 10:46:48;;;;;;;2.65;2.30;;;;;;;22.06;49.89;101291.44;5050901;28;20041;-76
2023/06/30 10:49:18;;;;;;;4.57;1.95;;;;;;;22.17;51.02;101303.19;5050780;28;20021;-76
2023/06/30 10:51:50;;;;;;;5.60;2.50;;;;;;;22.00;50.35;101293.31;5050743;28;20472;-76
2023/06/30 10:54:38;;;;;;;3.33;2.00;;;;;;;21.90;52.21;101301.38;5044466;28;20061;-76
2023/06/30 10:57:10;;;;;;;4.13;2.00;;;;;;;22.03;51.40;101298.22;5040247;28;20143;-75
2023/06/30 10:59:43;;;;;;;3.95;2.55;;;;;;;22.24;49.24;101295.63;5031345;28;20384;-76
2023/06/30 11:02:18;;;;;;;3.42;2.30;;;;;;;22.51;50.33;101300.94;5031768;28;20030;-76
2023/06/30 11:04:47;;;;;;;6.75;2.88;;;;;;;22.37;49.09;101278.84;5031766;28;20037;-76
2023/06/30 11:07:26;;;;;;;5.78;2.38;;;;;;;22.54;49.02;101297.69;5031415;28;20033;-75
2023/06/30 11:09:51;;;;;;;5.15;2.53;;;;;;;22.47;48.47;101291.69;5043530;28;20040;-76
2023/06/30 11:12:24;;;;;;;7.00;2.57;;;;;;;22.23;47.87;101289.38;5044204;28;20496;-75
2023/06/30 11:14:57;;;;;;;7.05;2.75;;;;;;;22.09;49.13;101290.94;5035567;28;20274;-74
2023/06/30 11:17:26;;;;;;;5.63;2.03;;;;;;;22.03;48.62;101281.94;5035314;28;20670;-73